Port Isabel, TX (78597)

8:25 PM CDT on August 31, 2015 (GMT -0500)
APRSWXNET | | Change Station
CLOSE
Current Station
Personal Weather Station
Location: Port Isabel, TX
Elevation: 6 ft
Nearby Weather Stations

Elev 6 ft 26.09 °N, 97.29 °W | Updated 29 minutes ago

Clear
Clear
78 °F
Feels Like 81 °F
N
0
Wind Variable Wind from North
Gusts 0.0 mph

Today
High -- | Low -- °F
--% Chance of Precip.
Yesterday
High -- | Low -- °F
Precip. -- in
7:08 AM 7:49 PM
Waning Gibbous, 92% visible
Pressure 29.91 in
Visibility 9.0 miles
Clouds Few 4600 ft
Heat Index 81 °F
Dew Point 76 °F
Humidity 95%
Rainfall in
Snow Depth Not available.
UV 0 out of 12
Pollen 8.00 out of 12
Air Quality Not available.
Flu Activity Not available.
METAR KPIL 010053Z AUTO 00000KT 9SM FEW046 27/27 A2990 RMK AO2 RAE44 SLP126 P0002 T02670267
Pressure 29.91 in
Visibility 9.0 miles
Clouds Few 4600 ft
Heat Index 81 °F
Dew Point 76 °F
Humidity 95%
Rainfall in
Snow Depth Not available.
UV 0 out of 12
Pollen 8.00 out of 12
Air Quality Not available.
Flu Activity Not available.
METAR KPIL 010053Z AUTO 00000KT 9SM FEW046 27/27 A2990 RMK AO2 RAE44 SLP126 P0002 T02670267
Nowcast | as of 8:20 PM CDT on August 31, 2015

Through 930 PM...light to occasional moderate rain will continue to affect portions of deep south Texas. Rainfall amounts will range from a trace to a tenth of an inch.

×

10-Day Weather Forecast

×

Almanac

Astronomy

Aug. 31, 2015 Rise Set
Actual Time
Civil Twilight
Nautical Twilight
Astronomical Twilight
Moon
Length of Visible Light
Length of Day
Tomorrow will be .
, % of the Moon is Illuminated

Today's Extremes

State Highs State Lows

Community

WunderPhotos

Upload Photos

1,851,416 photos uploaded!

WunderBlogs® & News

Nearby

Air Quality

  Air Quality AQ Index Pollutant
Not available.

Snow Depth

Station Depth Elevation

Earthquake Activity

City Distance Mag. Time & Date
Minimum magnitude displayed is 2.5.

Coastal Water Temperatures

Place Temperature

Stations

Nearby Weather Stations

Station Location Temp. Windchill Dew Point Humidity Wind Precip. Elev Updated Type